createdAt,value
2019-04-05T00:03:26.296Z,5.19
2019-04-05T00:09:21.288Z,1.37
2019-04-05T00:15:16.357Z,2.97
2019-04-05T00:21:11.339Z,1.3
2019-04-05T00:27:06.650Z,1.69
2019-04-05T00:38:56.389Z,1.99
2019-04-05T00:38:56.407Z,2.51
2019-04-05T00:44:51.312Z,1.85
2019-04-05T00:50:46.327Z,1.6
2019-04-05T00:56:41.323Z,1.9
2019-04-05T01:02:36.378Z,1.37
2019-04-05T01:08:31.361Z,1.03
2019-04-05T01:14:26.339Z,2.11
2019-04-05T01:20:21.358Z,3.05
2019-04-05T01:32:11.362Z,2.58
2019-04-05T01:32:11.392Z,1.1
2019-04-05T01:38:06.425Z,1.45
2019-04-05T01:44:01.365Z,0.81
2019-04-05T01:49:56.370Z,1.11
2019-04-05T01:55:51.375Z,1.17
2019-04-05T02:01:46.468Z,0.83
2019-04-05T02:07:41.388Z,1.04
2019-04-05T02:13:36.436Z,0.77
2019-04-05T02:25:26.378Z,0.76
2019-04-05T02:25:26.406Z,0.63
2019-04-05T02:31:21.369Z,1.18
2019-04-05T02:37:16.436Z,1.12
2019-04-05T02:43:11.398Z,0.99
2019-04-05T02:49:06.415Z,2.16
2019-04-05T02:55:01.413Z,1.53
2019-04-05T03:00:56.468Z,1.3
2019-04-05T03:06:51.420Z,1.97
2019-04-05T03:12:46.415Z,1.34
2019-04-05T03:18:41.423Z,1.45
2019-04-05T03:24:36.429Z,2.42
2019-04-05T03:30:31.438Z,1.64
2019-04-05T03:36:26.471Z,1.85
2019-04-05T03:42:21.434Z,2.81
2019-04-05T03:48:16.463Z,2.33
2019-04-05T03:54:11.504Z,2.65
2019-04-05T04:00:06.478Z,1.37
2019-04-05T04:06:01.473Z,2.21
2019-04-05T04:11:56.451Z,3.52
2019-04-05T04:17:51.463Z,1.39
2019-04-05T04:23:46.456Z,1.51
2019-04-05T04:29:41.474Z,1.02
2019-04-05T04:35:36.508Z,2.44
2019-04-05T04:41:31.953Z,1.16
2019-04-05T04:47:27.444Z,0.93
2019-04-05T04:53:21.512Z,1.53
2019-04-05T04:59:16.486Z,2.34
2019-04-05T05:05:11.477Z,0.9
2019-04-05T05:11:14.215Z,0.58
2019-04-05T05:17:01.524Z,1.67
2019-04-05T05:22:56.542Z,1.1
2019-04-05T05:28:51.513Z,0.99
2019-04-05T05:34:46.526Z,0.79
2019-04-05T05:40:41.519Z,1.8
2019-04-05T05:46:36.551Z,4.63
2019-04-05T05:52:31.507Z,2.2
2019-04-05T05:58:26.598Z,1.02
2019-04-05T06:04:21.544Z,2.11
2019-04-05T06:10:16.606Z,3.56
2019-04-05T06:16:11.557Z,13.59
2019-04-05T06:22:06.545Z,2.37
2019-04-05T06:28:01.538Z,1.49
2019-04-05T06:33:56.542Z,2.88
2019-04-05T06:39:51.556Z,1.43
2019-04-05T06:45:46.563Z,1.68
2019-04-05T06:51:41.567Z,1.21
2019-04-05T06:57:36.558Z,1.24
2019-04-05T07:03:31.543Z,1.69
2019-04-05T07:09:26.549Z,2.42
2019-04-05T07:15:21.568Z,1.8
2019-04-05T07:21:17.378Z,2.53
2019-04-05T07:27:11.565Z,4.27
2019-04-05T07:33:06.866Z,1.84
2019-04-05T07:39:01.591Z,2.67
2019-04-05T07:44:56.645Z,1.75
2019-04-05T07:50:51.599Z,2.81
2019-04-05T07:56:46.588Z,1.78
2019-04-05T08:02:41.610Z,4.52
2019-04-05T08:08:36.612Z,4.95
2019-04-05T08:14:31.601Z,2.26
2019-04-05T08:20:26.604Z,2.6
2019-04-05T08:26:21.609Z,2.62
2019-04-05T08:32:16.588Z,1.71
2019-04-05T09:01:51.635Z,2.83
2019-04-05T09:01:51.689Z,2.2
2019-04-05T09:01:51.702Z,2.2
2019-04-05T09:01:51.752Z,2.2
2019-04-05T09:01:51.759Z,2.2
2019-04-05T09:07:46.642Z,4.01
2019-04-05T09:13:41.637Z,2.67
2019-04-05T09:19:36.637Z,3.85
2019-04-05T09:25:31.661Z,4.71
2019-04-05T09:31:26.665Z,4.06
2019-04-05T09:37:21.663Z,3.26
2019-04-05T09:43:16.658Z,3.29
2019-04-05T09:49:11.647Z,8.13
2019-04-05T10:12:51.690Z,5.69
2019-04-05T10:12:51.724Z,2.9
2019-04-05T10:12:51.758Z,2.9
2019-04-05T10:12:51.773Z,2.9
2019-04-05T10:18:46.711Z,4.12
2019-04-05T10:24:41.688Z,6.22
2019-04-05T10:30:36.681Z,1.14
2019-04-05T10:36:31.692Z,5.65
2019-04-05T10:42:26.673Z,1.6
2019-04-05T10:48:21.718Z,3.51
2019-04-05T10:54:16.716Z,3.58
2019-04-05T11:00:11.705Z,2.16
2019-04-05T11:23:53.489Z,2.31
2019-04-05T11:23:53.489Z,2.31
2019-04-05T11:23:53.489Z,2.31
2019-04-05T11:23:53.489Z,2.29
2019-04-05T11:29:46.715Z,4.58
2019-04-05T11:41:36.718Z,4.2
2019-04-05T11:47:31.781Z,3.43
2019-04-05T11:53:26.738Z,4.7
2019-04-05T11:59:21.755Z,4.43
2019-04-05T12:05:16.726Z,1.48
2019-04-05T12:11:11.830Z,4.81
2019-04-05T12:17:09.602Z,2.13
2019-04-05T12:23:01.778Z,1.1
2019-04-05T12:28:56.794Z,2.21
2019-04-05T12:34:52.614Z,1.63
2019-04-05T12:40:46.754Z,1.84
2019-04-05T12:46:43.412Z,0.82
2019-04-05T12:52:36.770Z,2.53
2019-04-05T12:58:32.808Z,1.23
2019-04-05T13:04:26.788Z,3.17
2019-04-05T13:10:24.911Z,0.74
2019-04-05T13:16:16.795Z,2.61
2019-04-05T13:22:11.800Z,5.46
2019-04-05T13:28:12.982Z,1.71
2019-04-05T13:34:01.786Z,1.87
2019-04-05T13:39:57.574Z,1.07
2019-04-05T13:45:51.806Z,4.28
2019-04-05T13:51:46.838Z,1.36
2019-04-05T13:57:41.838Z,1.49
2019-04-05T14:03:36.832Z,2.73
2019-04-05T14:09:31.878Z,0.4
2019-04-05T14:15:26.817Z,2.02
2019-04-05T14:21:22.420Z,5.39
2019-04-05T14:27:16.931Z,3.9
2019-04-05T14:33:11.817Z,2.04
2019-04-05T14:39:07.121Z,4.79
2019-04-05T14:45:01.887Z,7.73
2019-04-05T14:50:57.768Z,2.87
2019-04-05T14:56:51.858Z,1.12
2019-04-05T15:02:46.831Z,0.9
2019-04-05T15:08:41.856Z,3.74
2019-04-05T15:14:36.869Z,3.2
2019-04-05T15:20:32.625Z,2.4
2019-04-05T15:26:26.859Z,2.53
2019-04-05T15:32:23.306Z,5.79
2019-04-05T15:38:16.899Z,3.62
2019-04-05T15:44:12.171Z,2.03
2019-04-05T15:50:07.203Z,0.6
2019-04-05T15:56:04.209Z,1.45
2019-04-05T16:01:56.910Z,6.48
2019-04-05T16:07:51.926Z,2.18
2019-04-05T16:13:46.870Z,0.71
2019-04-05T16:19:41.920Z,5.75
2019-04-05T16:25:36.906Z,3.17
2019-04-05T16:31:31.924Z,2.64
2019-04-05T16:37:26.914Z,3.49
2019-04-05T16:43:21.946Z,1.84
2019-04-05T16:49:16.894Z,0.96
2019-04-05T16:55:11.934Z,3.72
2019-04-05T17:01:07.221Z,1.91
2019-04-05T17:07:01.911Z,1.92
2019-04-05T17:12:56.923Z,1.31
2019-04-05T17:18:51.935Z,4.77
2019-04-05T17:24:46.956Z,3.62
2019-04-05T17:30:42.006Z,3.32
2019-04-05T18:12:07.299Z,2.79
2019-04-05T18:12:07.372Z,1.29
2019-04-05T18:12:07.376Z,1.29
2019-04-05T18:12:07.409Z,1.29
2019-04-05T18:12:07.424Z,1.29
2019-04-05T18:12:07.464Z,1.29
2019-04-05T18:12:07.494Z,1.29
2019-04-05T18:18:01.981Z,1.8
2019-04-05T18:23:56.984Z,3.72
2019-04-05T18:29:51.957Z,3.22
2019-04-05T18:35:46.987Z,6.11
2019-04-05T18:41:42.024Z,6.37
2019-04-05T18:47:36.995Z,7.37
2019-04-05T18:53:37.329Z,5.86
2019-04-05T18:59:27.012Z,4.5
2019-04-05T19:11:17.053Z,5.82
2019-04-05T19:11:17.081Z,7.85
2019-04-05T19:17:23.098Z,7.79
2019-04-05T19:23:07.011Z,7.89
2019-04-05T19:29:02.023Z,9.89
2019-04-05T19:52:42.054Z,10.35
2019-04-05T19:58:37.042Z,7.4
2019-04-05T20:04:32.102Z,7.01
2019-04-05T20:10:27.045Z,6.17
2019-04-05T20:16:22.052Z,6.67
2019-04-05T20:22:17.249Z,10.5
2019-04-05T20:28:12.429Z,9.04
2019-04-05T20:34:07.045Z,14.39
2019-04-05T20:40:02.098Z,7.32
2019-04-05T20:45:57.070Z,8.98
2019-04-05T20:51:52.073Z,7.26
2019-04-05T21:03:42.082Z,9.43
2019-04-05T21:03:42.127Z,9.23
2019-04-05T21:09:37.170Z,4.54
2019-04-05T21:15:32.116Z,4.2
2019-04-05T21:21:27.102Z,5.47
2019-04-05T21:27:22.086Z,6.34
2019-04-05T21:33:17.098Z,6.71
2019-04-05T21:39:12.101Z,5.93
2019-04-05T21:45:07.106Z,11.03
2019-04-05T21:51:02.175Z,7.73
2019-04-05T21:56:57.111Z,6.05
2019-04-05T22:02:52.120Z,7.58
2019-04-05T22:08:47.153Z,2.99
2019-04-05T22:14:42.132Z,7.03
2019-04-05T22:20:37.109Z,8.72
2019-04-05T22:26:32.124Z,4.24
2019-04-05T22:32:27.169Z,5.61
2019-04-05T22:38:22.154Z,5.21
2019-04-05T22:44:17.154Z,6.72
2019-04-05T22:50:12.112Z,6.18
2019-04-05T22:56:07.178Z,5.52
2019-04-05T23:02:02.230Z,4.34
2019-04-05T23:07:57.166Z,6.74
2019-04-05T23:13:52.166Z,6.31
2019-04-05T23:19:47.818Z,5.62
2019-04-05T23:25:42.149Z,5.95
2019-04-05T23:31:37.190Z,7.26
2019-04-05T23:37:32.156Z,4.8
2019-04-05T23:43:27.155Z,7.48
2019-04-05T23:49:22.168Z,4.83
2019-04-05T23:55:17.162Z,6.44
